createdAt,value
2023-03-21T00:01:27.414Z,1.63
2023-03-21T00:03:56.982Z,1.07
2023-03-21T00:06:26.668Z,1.20
2023-03-21T00:08:57.620Z,1.47
2023-03-21T00:11:27.051Z,1.63
2023-03-21T00:13:58.174Z,1.60
2023-03-21T00:16:30.371Z,1.40
2023-03-21T00:19:02.159Z,1.37
2023-03-21T00:21:48.823Z,1.70
2023-03-21T00:24:04.884Z,1.40
2023-03-21T00:26:34.963Z,1.40
2023-03-21T00:29:04.679Z,1.60
2023-03-21T00:31:34.199Z,1.43
2023-03-21T00:34:03.658Z,1.27
2023-03-21T00:36:33.320Z,1.20
2023-03-21T00:39:03.245Z,1.30
2023-03-21T00:41:45.864Z,1.50
2023-03-21T00:44:04.258Z,1.60
2023-03-21T00:46:43.925Z,1.17
2023-03-21T00:49:06.519Z,1.27
2023-03-21T00:51:36.259Z,1.30
2023-03-21T00:54:05.873Z,1.30
2023-03-21T00:56:35.341Z,0.97
2023-03-21T00:59:04.929Z,1.70
2023-03-21T01:01:34.654Z,1.60
2023-03-21T01:04:06.293Z,1.50
2023-03-21T01:06:40.368Z,1.30
2023-03-21T01:09:17.708Z,1.33
2023-03-21T01:11:48.271Z,1.40
2023-03-21T01:14:23.584Z,1.30
2023-03-21T01:16:54.431Z,1.63
2023-03-21T01:19:44.189Z,1.50
2023-03-21T01:21:59.948Z,1.20
2023-03-21T01:24:29.929Z,1.33
2023-03-21T01:26:59.394Z,1.70
2023-03-21T01:29:28.839Z,1.70
2023-03-21T01:31:58.278Z,1.40
2023-03-21T01:34:29.210Z,1.60
2023-03-21T01:36:58.803Z,1.60
2023-03-21T01:39:28.303Z,1.40
2023-03-21T01:41:57.758Z,1.70
2023-03-21T01:44:27.261Z,1.70
2023-03-21T01:47:10.916Z,1.43
2023-03-21T01:49:34.332Z,1.57
2023-03-21T01:52:13.078Z,1.50
2023-03-21T01:54:43.906Z,1.70
2023-03-21T01:57:17.961Z,1.93
2023-03-21T01:59:51.378Z,1.93
2023-03-21T02:02:31.286Z,1.90
2023-03-21T02:05:03.903Z,1.90
2023-03-21T02:07:37.442Z,3.30
2023-03-21T02:10:11.437Z,2.13
2023-03-21T02:12:41.384Z,2.33
2023-03-21T02:15:12.439Z,2.40
2023-03-21T02:18:01.439Z,2.20
2023-03-21T02:21:14.799Z,2.40
2023-03-21T02:24:18.902Z,2.40
2023-03-21T02:27:11.841Z,2.50
2023-03-21T02:30:28.243Z,1.70
2023-03-21T02:33:18.461Z,2.57
2023-03-21T02:36:14.750Z,2.40
2023-03-21T02:39:14.163Z,2.17
2023-03-21T02:42:20.056Z,2.30
2023-03-21T02:45:12.197Z,2.00
2023-03-21T02:47:49.560Z,2.40
2023-03-21T02:50:41.923Z,2.60
2023-03-21T02:53:16.648Z,2.10
2023-03-21T02:55:48.404Z,2.47
2023-03-21T02:58:22.638Z,2.80
2023-03-21T03:00:56.418Z,1.90
2023-03-21T03:03:33.864Z,2.60
2023-03-21T03:06:03.601Z,2.73
2023-03-21T03:09:01.300Z,2.57
2023-03-21T03:11:34.541Z,2.47
2023-03-21T03:14:44.176Z,2.77
2023-03-21T03:17:28.647Z,2.40
2023-03-21T03:20:28.246Z,2.83
2023-03-21T03:23:19.922Z,2.47
2023-03-21T03:26:05.524Z,2.43
2023-03-21T03:28:39.925Z,2.40
2023-03-21T03:31:12.842Z,2.20
2023-03-21T03:33:47.356Z,2.77
2023-03-21T03:36:30.853Z,2.43
2023-03-21T03:38:52.401Z,2.67
2023-03-21T03:41:31.852Z,2.70
2023-03-21T03:44:03.058Z,2.57
2023-03-21T03:46:49.376Z,3.20
2023-03-21T03:49:23.661Z,2.80
2023-03-21T03:52:12.754Z,2.50
2023-03-21T03:54:49.312Z,2.50
2023-03-21T03:57:20.075Z,4.47
2023-03-21T03:59:49.655Z,3.00
2023-03-21T04:02:20.503Z,3.57
2023-03-21T04:04:52.086Z,3.00
2023-03-21T04:07:25.209Z,2.37
2023-03-21T04:09:54.661Z,2.73
2023-03-21T04:12:24.345Z,2.80
2023-03-21T04:14:56.965Z,2.87
2023-03-21T04:17:25.443Z,2.60
2023-03-21T04:20:05.385Z,2.63
2023-03-21T04:22:27.035Z,2.80
2023-03-21T04:24:56.650Z,2.67
2023-03-21T04:27:26.117Z,2.80
2023-03-21T04:29:56.216Z,2.97
2023-03-21T04:32:26.271Z,2.87
2023-03-21T04:34:55.731Z,2.53
2023-03-21T04:37:26.019Z,2.40
2023-03-21T04:39:55.965Z,2.40
2023-03-21T04:42:25.495Z,2.50
2023-03-21T04:44:54.948Z,3.50
2023-03-21T04:47:24.482Z,2.93
2023-03-21T04:49:54.009Z,2.97
2023-03-21T04:52:25.340Z,2.97
2023-03-21T04:54:54.986Z,3.40
2023-03-21T04:57:24.505Z,3.13
2023-03-21T04:59:53.932Z,3.10
2023-03-21T05:02:23.440Z,3.10
2023-03-21T05:04:52.879Z,3.27
2023-03-21T05:07:23.971Z,2.93
2023-03-21T05:09:53.907Z,4.53
2023-03-21T05:12:23.337Z,4.60
2023-03-21T05:14:52.877Z,3.30
2023-03-21T05:17:23.992Z,3.33
2023-03-21T05:19:55.859Z,4.20
2023-03-21T05:22:28.749Z,3.37
2023-03-21T05:24:58.213Z,2.80
2023-03-21T05:27:36.650Z,2.23
2023-03-21T05:30:19.010Z,2.57
2023-03-21T05:32:48.719Z,2.60
2023-03-21T05:35:18.448Z,2.40
2023-03-21T05:37:47.937Z,2.97
2023-03-21T05:40:17.399Z,3.20
2023-03-21T05:42:48.067Z,3.20
2023-03-21T05:45:18.537Z,3.27
2023-03-21T05:47:48.008Z,3.13
2023-03-21T05:50:17.498Z,3.10
2023-03-21T05:52:46.945Z,3.00
2023-03-21T05:55:16.393Z,4.07
2023-03-21T05:57:45.894Z,3.80
2023-03-21T06:00:16.326Z,3.30
2023-03-21T06:02:46.734Z,4.67
2023-03-21T06:05:16.203Z,3.90
2023-03-21T06:07:46.139Z,3.57
2023-03-21T06:10:15.841Z,3.00
2023-03-21T06:12:45.271Z,3.97
2023-03-21T06:15:15.336Z,3.67
2023-03-21T06:17:44.796Z,4.40
2023-03-21T06:20:14.785Z,4.00
2023-03-21T06:22:44.252Z,3.80
2023-03-21T06:25:13.691Z,2.73
2023-03-21T06:27:43.323Z,2.90
2023-03-21T06:30:13.673Z,2.70
2023-03-21T06:32:43.365Z,3.07
2023-03-21T06:35:12.814Z,3.27
2023-03-21T06:37:43.422Z,3.30
2023-03-21T06:40:13.780Z,3.35
2023-03-21T06:42:43.314Z,3.30
2023-03-21T06:45:12.833Z,3.07
2023-03-21T06:47:42.442Z,3.70
2023-03-21T06:50:12.386Z,4.40
2023-03-21T06:52:41.853Z,3.33
2023-03-21T06:55:11.650Z,4.90
2023-03-21T06:57:41.134Z,3.53
2023-03-21T07:00:12.015Z,3.87
2023-03-21T07:02:41.820Z,3.40
2023-03-21T07:05:11.424Z,3.43
2023-03-21T07:07:41.994Z,3.40
2023-03-21T07:10:12.462Z,3.30
2023-03-21T07:12:41.898Z,3.80
2023-03-21T07:15:13.970Z,3.50
2023-03-21T07:17:43.431Z,3.93
2023-03-21T07:20:14.187Z,4.13
2023-03-21T07:22:43.984Z,3.60
2023-03-21T07:25:13.761Z,3.10
2023-03-21T07:27:43.514Z,3.67
2023-03-21T07:30:14.270Z,3.60
2023-03-21T07:32:45.551Z,3.40
2023-03-21T07:35:18.340Z,3.10
2023-03-21T07:37:47.811Z,3.33
2023-03-21T07:40:17.663Z,3.10
2023-03-21T07:42:48.725Z,3.10
2023-03-21T07:45:21.229Z,2.83
2023-03-21T07:47:51.167Z,3.90
2023-03-21T07:50:20.946Z,3.83
2023-03-21T07:52:50.982Z,3.27
2023-03-21T07:55:20.918Z,3.60
2023-03-21T07:57:54.003Z,4.23
2023-03-21T08:00:24.309Z,3.23
2023-03-21T08:02:58.899Z,3.10
2023-03-21T08:05:32.876Z,4.37
2023-03-21T08:08:03.498Z,3.73
2023-03-21T08:10:32.927Z,4.37
2023-03-21T08:13:02.526Z,3.10
2023-03-21T08:15:32.074Z,3.67
2023-03-21T08:18:02.078Z,4.63
2023-03-21T08:20:31.570Z,3.97
2023-03-21T08:23:01.208Z,3.53
2023-03-21T08:25:30.883Z,3.40
2023-03-21T08:28:00.655Z,3.17
2023-03-21T08:30:31.155Z,3.13
2023-03-21T08:33:02.198Z,2.90
2023-03-21T08:35:32.427Z,3.33
2023-03-21T08:38:04.512Z,2.77
2023-03-21T08:40:34.609Z,3.10
2023-03-21T08:43:04.239Z,3.10
2023-03-21T08:45:33.708Z,3.00
2023-03-21T08:48:03.227Z,3.30
2023-03-21T08:50:32.644Z,3.10
2023-03-21T08:53:02.108Z,3.33
2023-03-21T08:55:33.143Z,2.97
2023-03-21T08:58:02.824Z,3.27
2023-03-21T09:00:32.372Z,4.27
2023-03-21T09:03:01.890Z,3.30
2023-03-21T09:05:31.609Z,3.13
2023-03-21T09:08:01.722Z,3.00
2023-03-21T09:10:31.482Z,3.70
2023-03-21T09:13:00.922Z,3.23
2023-03-21T09:15:30.436Z,2.53
2023-03-21T09:18:02.465Z,2.67
2023-03-21T09:20:32.961Z,3.57
2023-03-21T09:23:02.673Z,4.70
2023-03-21T09:25:32.654Z,3.30
2023-03-21T09:28:04.866Z,2.73
2023-03-21T09:30:36.770Z,3.13
2023-03-21T09:33:08.489Z,2.63
2023-03-21T09:35:38.379Z,3.83
2023-03-21T09:38:08.257Z,3.53
2023-03-21T09:40:56.508Z,3.20
2023-03-21T09:43:57.359Z,2.80
2023-03-21T09:46:46.736Z,3.23
2023-03-21T09:49:31.046Z,2.57
2023-03-21T09:52:09.327Z,4.10
2023-03-21T09:54:46.567Z,3.80
2023-03-21T09:57:32.504Z,3.03
2023-03-21T10:00:10.987Z,3.50
2023-03-21T10:02:50.215Z,3.37
2023-03-21T10:05:24.405Z,3.80
2023-03-21T10:08:09.723Z,3.20
2023-03-21T10:10:55.800Z,3.20
2023-03-21T10:13:32.985Z,3.30
2023-03-21T10:16:19.657Z,3.40
2023-03-21T10:18:51.707Z,3.50
2023-03-21T10:21:56.514Z,2.83
2023-03-21T10:24:01.895Z,3.30
2023-03-21T10:26:31.675Z,3.00
2023-03-21T10:29:04.365Z,2.57
2023-03-21T10:31:34.404Z,2.67
2023-03-21T10:34:23.582Z,3.27
2023-03-21T10:36:53.089Z,3.17
2023-03-21T10:39:30.034Z,2.70
2023-03-21T10:41:59.552Z,2.93
2023-03-21T10:44:37.363Z,3.80
2023-03-21T10:47:11.444Z,3.20
2023-03-21T10:50:05.665Z,2.93
2023-03-21T10:52:17.464Z,2.80
2023-03-21T10:54:48.490Z,2.83
2023-03-21T10:57:24.051Z,2.40
2023-03-21T10:59:58.238Z,2.40
2023-03-21T11:02:39.407Z,2.63
2023-03-21T11:05:20.789Z,2.30
2023-03-21T11:07:59.656Z,2.93
2023-03-21T11:10:38.035Z,2.80
2023-03-21T11:13:21.136Z,2.10
2023-03-21T11:15:58.581Z,2.10
2023-03-21T11:18:33.263Z,2.60
2023-03-21T11:21:10.367Z,2.23
2023-03-21T11:23:52.361Z,2.80
2023-03-21T11:26:32.229Z,2.60
2023-03-21T11:29:03.841Z,2.60
2023-03-21T11:31:42.102Z,2.50
2023-03-21T11:34:15.100Z,2.40
2023-03-21T11:36:44.546Z,2.33
2023-03-21T11:39:37.613Z,2.57
2023-03-21T11:42:09.571Z,3.33
2023-03-21T11:44:45.921Z,2.90
2023-03-21T11:47:15.522Z,3.33
2023-03-21T11:49:44.990Z,2.57
2023-03-21T11:52:32.442Z,2.50
2023-03-21T11:55:09.552Z,3.00
2023-03-21T11:57:57.994Z,3.30
2023-03-21T12:00:34.578Z,2.87
2023-03-21T12:03:14.561Z,2.80
2023-03-21T12:06:03.780Z,3.93
2023-03-21T12:08:40.846Z,3.03
2023-03-21T12:11:23.479Z,3.40
2023-03-21T12:14:36.894Z,4.00
2023-03-21T12:17:35.315Z,4.00
2023-03-21T12:20:39.971Z,2.90
2023-03-21T12:23:26.276Z,2.37
2023-03-21T12:26:26.455Z,3.10
2023-03-21T12:29:06.382Z,2.40
2023-03-21T12:32:04.162Z,2.70
2023-03-21T12:34:46.182Z,3.57
2023-03-21T12:37:53.241Z,2.23
2023-03-21T12:40:48.081Z,2.10
2023-03-21T12:43:44.907Z,1.87
2023-03-21T12:46:21.657Z,1.80
2023-03-21T12:49:10.851Z,2.67
2023-03-21T12:51:44.919Z,2.47
2023-03-21T12:54:42.685Z,2.07
2023-03-21T12:57:23.310Z,1.93
2023-03-21T13:00:04.747Z,2.50
2023-03-21T13:02:39.383Z,2.10
2023-03-21T13:05:47.133Z,2.63
2023-03-21T13:08:41.986Z,1.63
2023-03-21T13:11:18.497Z,1.90
2023-03-21T13:14:01.947Z,1.13
2023-03-21T13:16:52.563Z,1.83
2023-03-21T13:19:41.858Z,1.53
2023-03-21T13:22:32.273Z,1.33
2023-03-21T13:25:12.301Z,2.30
2023-03-21T13:27:45.279Z,2.30
2023-03-21T13:30:22.310Z,1.67
2023-03-21T13:32:58.570Z,2.60
2023-03-21T13:35:42.883Z,1.97
2023-03-21T13:38:25.563Z,1.23
2023-03-21T13:41:20.449Z,1.17
2023-03-21T13:44:06.370Z,1.67
2023-03-21T13:46:54.046Z,1.67
2023-03-21T13:49:36.855Z,1.60
2023-03-21T13:52:16.608Z,1.30
2023-03-21T13:54:58.393Z,1.97
2023-03-21T13:57:35.239Z,2.20
2023-03-21T14:00:26.086Z,2.50
2023-03-21T14:03:03.719Z,2.73
2023-03-21T14:05:35.239Z,1.90
2023-03-21T14:08:21.592Z,1.57
2023-03-21T14:10:46.755Z,1.77
2023-03-21T14:13:21.042Z,1.17
2023-03-21T14:16:01.216Z,1.83
2023-03-21T14:21:05.102Z,2.10
2023-03-21T14:23:33.631Z,1.30
2023-03-21T14:26:04.096Z,1.17
2023-03-21T14:28:36.202Z,1.37
2023-03-21T14:31:06.410Z,2.13
2023-03-21T14:33:45.439Z,1.73
2023-03-21T14:36:19.585Z,1.87
2023-03-21T14:39:09.053Z,1.60
2023-03-21T14:41:48.862Z,2.07
2023-03-21T14:44:28.935Z,1.60
2023-03-21T14:47:08.734Z,1.40
2023-03-21T14:49:39.460Z,0.77
2023-03-21T14:52:33.637Z,1.30
2023-03-21T14:55:07.096Z,1.27
2023-03-21T14:57:36.532Z,1.30
2023-03-21T15:00:12.984Z,1.30
2023-03-21T15:02:46.297Z,1.90
2023-03-21T15:05:31.982Z,1.40
2023-03-21T15:08:14.917Z,1.30
2023-03-21T15:11:07.283Z,1.50
2023-03-21T15:13:52.595Z,1.70
2023-03-21T15:16:23.113Z,1.30
2023-03-21T15:18:53.624Z,1.30
2023-03-21T15:21:30.528Z,1.13
2023-03-21T15:24:12.164Z,0.80
2023-03-21T15:26:47.242Z,1.43
2023-03-21T15:29:19.009Z,1.17
2023-03-21T15:31:50.178Z,0.93
2023-03-21T15:34:30.631Z,1.50
2023-03-21T15:37:07.195Z,1.03
2023-03-21T15:39:36.783Z,2.20
2023-03-21T15:42:25.918Z,1.70
2023-03-21T15:44:59.987Z,1.43
2023-03-21T15:47:45.695Z,1.50
2023-03-21T15:50:38.344Z,1.27
2023-03-21T15:53:15.320Z,1.30
2023-03-21T15:55:52.011Z,1.50
2023-03-21T15:58:25.436Z,1.10
2023-03-21T16:00:58.221Z,1.17
2023-03-21T16:03:35.156Z,0.90
2023-03-21T16:06:17.341Z,1.10
2023-03-21T16:09:09.435Z,1.00
2023-03-21T16:11:45.879Z,1.33
2023-03-21T16:14:15.380Z,1.57
2023-03-21T16:16:45.803Z,1.67
2023-03-21T16:19:16.683Z,1.93
2023-03-21T16:21:46.860Z,1.27
2023-03-21T16:24:16.323Z,1.70
2023-03-21T16:26:51.101Z,1.57
2023-03-21T16:29:22.484Z,1.40
2023-03-21T16:31:51.994Z,0.83
2023-03-21T16:34:21.577Z,0.80
2023-03-21T16:36:51.021Z,0.97
2023-03-21T16:39:24.575Z,1.20
2023-03-21T16:41:54.536Z,1.07
2023-03-21T16:44:24.015Z,1.50
2023-03-21T16:46:53.457Z,2.00
2023-03-21T16:49:27.463Z,1.30
2023-03-21T16:51:58.163Z,1.20
2023-03-21T16:54:28.075Z,1.43
2023-03-21T16:56:59.492Z,1.37
2023-03-21T16:59:28.957Z,1.30
2023-03-21T17:01:58.434Z,1.93
2023-03-21T17:04:27.921Z,1.17
2023-03-21T17:06:57.536Z,1.43
2023-03-21T17:09:27.968Z,1.53
2023-03-21T17:11:57.410Z,1.33
2023-03-21T17:14:27.154Z,0.80
2023-03-21T17:16:56.634Z,1.00
2023-03-21T17:19:27.903Z,0.80
2023-03-21T17:21:58.868Z,0.87
2023-03-21T17:24:28.346Z,1.03
2023-03-21T17:26:58.173Z,1.40
2023-03-21T17:29:27.832Z,1.00
2023-03-21T17:31:57.487Z,0.93
2023-03-21T17:34:27.169Z,1.23
2023-03-21T17:36:56.631Z,1.00
2023-03-21T17:39:45.710Z,0.90
2023-03-21T17:42:18.282Z,1.20
2023-03-21T17:44:48.028Z,1.40
2023-03-21T17:47:17.465Z,1.70
2023-03-21T17:49:46.921Z,1.70
2023-03-21T17:52:16.360Z,1.40
2023-03-21T17:54:45.821Z,1.30
2023-03-21T17:57:15.267Z,1.10
2023-03-21T17:59:44.726Z,1.33
2023-03-21T18:02:14.321Z,1.33
2023-03-21T18:04:43.754Z,1.00
2023-03-21T18:07:24.503Z,1.60
2023-03-21T18:09:47.588Z,1.37
2023-03-21T18:12:17.027Z,1.40
2023-03-21T18:14:46.551Z,1.00
2023-03-21T18:17:17.629Z,1.20
2023-03-21T18:19:48.642Z,1.37
2023-03-21T18:22:18.060Z,1.30
2023-03-21T18:24:47.509Z,1.87
2023-03-21T18:27:17.497Z,1.37
2023-03-21T18:32:19.670Z,1.37
2023-03-21T18:34:49.376Z,1.37
2023-03-21T18:37:20.885Z,1.87
2023-03-21T18:39:50.296Z,1.70
2023-03-21T18:42:21.868Z,1.40
2023-03-21T18:44:51.715Z,1.20
2023-03-21T18:47:21.512Z,1.10
2023-03-21T18:52:23.815Z,0.90
2023-03-21T18:54:53.320Z,0.93
2023-03-21T18:57:39.189Z,1.40
2023-03-21T18:59:54.216Z,0.93
2023-03-21T19:02:23.875Z,1.23
2023-03-21T19:04:53.963Z,1.00
2023-03-21T19:07:24.919Z,0.90
2023-03-21T19:10:16.046Z,1.40
2023-03-21T19:12:28.374Z,0.90
2023-03-21T19:14:58.026Z,1.03
2023-03-21T19:19:58.976Z,1.57
2023-03-21T19:22:30.248Z,1.07
2023-03-21T19:24:59.765Z,1.50
2023-03-21T19:27:29.193Z,1.10
2023-03-21T19:30:13.521Z,1.30
2023-03-21T19:32:31.520Z,1.30
2023-03-21T19:35:01.056Z,1.57
2023-03-21T19:37:30.651Z,1.40
2023-03-21T19:40:00.160Z,1.53
2023-03-21T19:42:30.861Z,1.63
2023-03-21T19:45:00.410Z,1.67
2023-03-21T19:47:29.917Z,1.27
2023-03-21T19:52:31.901Z,1.30
2023-03-21T19:55:01.350Z,1.63
2023-03-21T19:57:30.822Z,1.63
2023-03-21T20:00:01.111Z,1.40
2023-03-21T20:02:36.320Z,1.40
2023-03-21T20:05:02.281Z,1.33
2023-03-21T20:07:32.976Z,1.37
2023-03-21T20:10:02.531Z,1.40
2023-03-21T20:12:33.642Z,1.37
2023-03-21T20:15:16.552Z,1.40
2023-03-21T20:17:35.653Z,1.53
2023-03-21T20:20:07.966Z,1.40
2023-03-21T20:23:05.261Z,1.60
2023-03-21T20:25:09.782Z,1.60
2023-03-21T20:27:42.051Z,1.60
2023-03-21T20:30:18.852Z,1.70
2023-03-21T20:32:49.428Z,1.90
2023-03-21T20:35:31.463Z,1.33
2023-03-21T20:37:51.961Z,1.40
2023-03-21T20:40:23.078Z,1.97
2023-03-21T20:42:55.430Z,3.27
2023-03-21T20:45:25.057Z,2.27
2023-03-21T20:47:55.102Z,1.70
2023-03-21T20:50:26.037Z,2.73
2023-03-21T20:53:06.421Z,2.87
2023-03-21T20:55:27.471Z,2.07
2023-03-21T20:57:56.956Z,1.80
2023-03-21T21:00:27.207Z,1.70
2023-03-21T21:02:58.059Z,1.60
2023-03-21T21:05:30.993Z,1.37
2023-03-21T21:07:59.203Z,1.97
2023-03-21T21:10:28.911Z,1.90
2023-03-21T21:12:58.425Z,2.10
2023-03-21T21:15:28.209Z,2.20
2023-03-21T21:18:07.898Z,2.07
2023-03-21T21:20:32.371Z,2.00
2023-03-21T21:23:01.896Z,2.57
2023-03-21T21:25:36.070Z,1.90
2023-03-21T21:28:08.094Z,1.90
2023-03-21T21:30:41.679Z,1.50
2023-03-21T21:33:11.338Z,1.50
2023-03-21T21:35:42.552Z,1.40
2023-03-21T21:38:13.999Z,1.63
2023-03-21T21:40:43.446Z,1.47
2023-03-21T21:43:13.164Z,1.80
2023-03-21T21:45:43.838Z,1.83
2023-03-21T21:48:13.546Z,1.50
2023-03-21T21:50:44.982Z,1.80
2023-03-21T21:53:16.676Z,2.10
2023-03-21T21:55:51.165Z,2.00
2023-03-21T21:58:21.307Z,1.70
2023-03-21T22:00:51.318Z,2.03
2023-03-21T22:03:22.466Z,1.80
2023-03-21T22:05:54.556Z,1.73
2023-03-21T22:08:24.315Z,2.00
2023-03-21T22:10:53.809Z,1.83
2023-03-21T22:13:23.324Z,2.17
2023-03-21T22:15:52.804Z,2.03
2023-03-21T22:18:22.549Z,1.97
2023-03-21T22:20:52.279Z,1.87
2023-03-21T22:23:21.823Z,2.40
2023-03-21T22:25:53.921Z,2.10
2023-03-21T22:28:25.226Z,1.87
2023-03-21T22:30:58.098Z,3.13
2023-03-21T22:33:27.687Z,2.83
2023-03-21T22:35:57.264Z,2.67
2023-03-21T22:38:28.112Z,1.80
2023-03-21T22:41:03.055Z,1.73
2023-03-21T22:43:35.886Z,2.30
2023-03-21T22:46:06.583Z,1.80
2023-03-21T22:48:36.134Z,1.47
2023-03-21T22:51:06.013Z,1.50
2023-03-21T22:53:35.503Z,1.47
2023-03-21T22:56:05.037Z,1.63
2023-03-21T22:58:34.533Z,1.37
2023-03-21T23:01:05.451Z,1.90
2023-03-21T23:03:35.012Z,2.00
2023-03-21T23:06:04.571Z,1.60
2023-03-21T23:08:34.086Z,1.70
2023-03-21T23:11:09.496Z,1.43
2023-03-21T23:13:40.612Z,1.80
2023-03-21T23:16:10.753Z,1.27
2023-03-21T23:18:40.659Z,1.70
2023-03-21T23:21:11.975Z,1.70
2023-03-21T23:23:44.249Z,1.60
2023-03-21T23:26:13.848Z,2.10
2023-03-21T23:28:43.465Z,2.10
2023-03-21T23:31:16.967Z,2.37
2023-03-21T23:33:49.532Z,1.47
2023-03-21T23:36:21.176Z,1.63
2023-03-21T23:38:50.706Z,1.70
2023-03-21T23:41:23.651Z,1.20
2023-03-21T23:43:54.253Z,1.60
2023-03-21T23:46:23.764Z,2.10
2023-03-21T23:48:53.264Z,1.73
2023-03-21T23:51:22.714Z,1.40
2023-03-21T23:53:53.492Z,1.20
2023-03-21T23:56:26.430Z,1.60
2023-03-21T23:58:57.966Z,1.70
